createdAt,value
2018-09-10T00:01:34.063Z,99.90
2018-09-10T00:04:09.782Z,99.90
2018-09-10T00:06:38.591Z,99.90
2018-09-10T00:09:08.527Z,99.90
2018-09-10T00:11:37.911Z,99.90
2018-09-10T00:14:06.869Z,99.90
2018-09-10T00:16:36.080Z,99.90
2018-09-10T00:19:04.855Z,99.90
2018-09-10T00:21:33.659Z,99.90
2018-09-10T00:24:02.466Z,99.90
2018-09-10T00:26:31.619Z,99.90
2018-09-10T00:29:00.525Z,99.90
2018-09-10T00:31:29.498Z,99.90
2018-09-10T00:33:58.756Z,99.90
2018-09-10T00:36:27.934Z,99.90
2018-09-10T00:38:56.690Z,99.90
2018-09-10T00:41:25.462Z,99.90
2018-09-10T00:43:54.258Z,99.90
2018-09-10T00:46:23.079Z,99.90
2018-09-10T00:48:52.172Z,99.90
2018-09-10T00:51:20.974Z,99.90
2018-09-10T00:53:49.850Z,99.90
2018-09-10T00:56:18.642Z,99.90
2018-09-10T00:58:47.390Z,99.90
2018-09-10T01:01:16.536Z,99.90
2018-09-10T01:03:45.318Z,99.90
2018-09-10T01:06:14.134Z,99.90
2018-09-10T01:08:42.965Z,99.90
2018-09-10T01:11:11.800Z,99.90
2018-09-10T01:13:40.740Z,99.90
2018-09-10T01:16:10.040Z,99.90
2018-09-10T01:18:38.789Z,99.90
2018-09-10T01:21:07.616Z,99.90
2018-09-10T01:23:36.392Z,99.90
2018-09-10T01:26:05.393Z,99.90
2018-09-10T01:28:34.344Z,99.90
2018-09-10T01:31:03.179Z,99.90
2018-09-10T01:33:37.435Z,99.90
2018-09-10T01:36:06.285Z,99.90
2018-09-10T01:38:35.104Z,99.90
2018-09-10T01:41:03.928Z,99.90
2018-09-10T01:43:32.745Z,99.90
2018-09-10T01:46:01.746Z,99.90
2018-09-10T01:48:30.615Z,99.90
2018-09-10T01:50:59.386Z,99.90
2018-09-10T01:53:28.155Z,99.90
2018-09-10T01:55:56.932Z,99.90
2018-09-10T01:58:25.676Z,99.90
2018-09-10T02:00:54.599Z,99.90
2018-09-10T02:03:23.381Z,99.90
2018-09-10T02:05:52.225Z,99.90
2018-09-10T02:08:20.991Z,99.90
2018-09-10T02:10:49.798Z,99.90
2018-09-10T02:13:18.872Z,99.90
2018-09-10T02:15:49.489Z,99.90
2018-09-10T02:18:19.104Z,99.90
2018-09-10T02:20:48.376Z,99.90
2018-09-10T02:23:17.429Z,99.90
2018-09-10T02:25:46.325Z,99.90
2018-09-10T02:28:15.470Z,99.90
2018-09-10T02:30:44.201Z,99.90
2018-09-10T02:33:13.000Z,99.90
2018-09-10T02:35:41.803Z,99.90
2018-09-10T02:38:10.602Z,99.90
2018-09-10T02:40:47.626Z,99.90
2018-09-10T02:43:16.396Z,99.90
2018-09-10T02:45:45.159Z,99.90
2018-09-10T02:48:13.952Z,99.90
2018-09-10T02:50:42.737Z,99.90
2018-09-10T02:53:11.907Z,99.90
2018-09-10T02:55:40.717Z,99.90
2018-09-10T02:58:09.504Z,99.90
2018-09-10T03:00:38.349Z,99.90
2018-09-10T03:03:07.085Z,99.90
2018-09-10T03:05:36.167Z,99.90
2018-09-10T03:08:05.000Z,99.90
2018-09-10T03:10:33.860Z,99.90
2018-09-10T03:13:02.691Z,99.90
2018-09-10T03:15:31.483Z,99.90
2018-09-10T03:18:00.489Z,99.90
2018-09-10T03:20:29.266Z,99.90
2018-09-10T03:22:58.242Z,99.90
2018-09-10T03:25:27.011Z,99.90
2018-09-10T03:27:55.762Z,99.90
2018-09-10T03:30:24.648Z,99.90
2018-09-10T03:32:53.555Z,99.90
2018-09-10T03:35:22.377Z,99.90
2018-09-10T03:37:51.107Z,99.90
2018-09-10T03:40:19.979Z,99.90
2018-09-10T03:42:48.930Z,99.90
2018-09-10T03:45:17.772Z,99.90
2018-09-10T03:47:46.534Z,99.90
2018-09-10T03:50:15.326Z,99.90
2018-09-10T03:52:44.123Z,99.90
2018-09-10T03:55:13.022Z,99.90
2018-09-10T03:57:41.875Z,99.90
2018-09-10T04:00:10.684Z,99.90
2018-09-10T04:02:39.561Z,99.90
2018-09-10T04:05:09.010Z,99.90
2018-09-10T04:07:37.915Z,99.90
2018-09-10T04:10:06.740Z,99.90
2018-09-10T04:12:35.531Z,99.90
2018-09-10T04:15:04.590Z,99.90
2018-09-10T04:17:33.640Z,99.90
2018-09-10T04:20:16.952Z,99.90
2018-09-10T04:22:45.733Z,99.90
2018-09-10T04:25:14.615Z,99.90
2018-09-10T04:27:43.764Z,99.90
2018-09-10T04:30:14.977Z,99.90
2018-09-10T04:32:43.868Z,99.90
2018-09-10T04:35:13.079Z,99.90
2018-09-10T04:37:41.940Z,99.90
2018-09-10T04:40:11.042Z,99.90
2018-09-10T04:42:39.804Z,99.90
2018-09-10T04:45:08.887Z,99.90
2018-09-10T04:47:37.692Z,99.90
2018-09-10T04:50:06.723Z,99.90
2018-09-10T04:52:35.644Z,99.90
2018-09-10T04:55:04.690Z,99.90
2018-09-10T04:57:33.469Z,99.90
2018-09-10T05:00:02.265Z,99.90
2018-09-10T05:02:31.739Z,99.90
2018-09-10T05:05:00.938Z,99.90
2018-09-10T05:07:30.495Z,99.90
2018-09-10T05:09:59.855Z,99.90
2018-09-10T05:12:28.605Z,99.90
2018-09-10T05:14:57.413Z,99.90
2018-09-10T05:17:26.216Z,99.90
2018-09-10T05:19:55.205Z,99.90
2018-09-10T05:22:24.106Z,99.90
2018-09-10T05:24:52.887Z,99.90
2018-09-10T05:27:21.746Z,99.90
2018-09-10T05:29:50.494Z,99.90
2018-09-10T05:32:19.346Z,99.90
2018-09-10T05:34:48.133Z,99.90
2018-09-10T05:37:16.906Z,99.90
2018-09-10T05:39:45.691Z,99.90
2018-09-10T05:42:14.500Z,99.90
2018-09-10T05:44:43.436Z,99.90
2018-09-10T05:47:12.305Z,99.90
2018-09-10T05:49:41.126Z,99.90
2018-09-10T05:52:09.918Z,99.90
2018-09-10T05:54:38.679Z,99.90
2018-09-10T05:57:07.634Z,99.90
2018-09-10T05:59:36.436Z,99.90
2018-09-10T06:02:05.297Z,99.90
2018-09-10T06:04:34.132Z,99.90
2018-09-10T06:07:02.908Z,99.90
2018-09-10T06:09:31.881Z,99.90
2018-09-10T06:12:00.621Z,99.90
2018-09-10T06:14:29.430Z,99.90
2018-09-10T06:16:58.169Z,99.90
2018-09-10T06:19:26.969Z,99.90
2018-09-10T06:21:55.849Z,99.90
2018-09-10T06:24:24.622Z,99.90
2018-09-10T06:26:53.452Z,99.90
2018-09-10T06:29:22.465Z,99.90
2018-09-10T06:31:51.311Z,99.90
2018-09-10T06:34:20.364Z,99.90
2018-09-10T06:36:49.054Z,99.90
2018-09-10T06:39:19.241Z,99.90
2018-09-10T06:41:49.051Z,99.90
2018-09-10T06:44:18.560Z,99.90
2018-09-10T06:46:47.557Z,99.90
2018-09-10T06:49:17.483Z,99.90
2018-09-10T06:51:47.498Z,99.90
2018-09-10T06:54:17.480Z,99.90
2018-09-10T06:56:46.778Z,99.90
2018-09-10T06:59:16.451Z,99.90
2018-09-10T07:01:46.876Z,99.90
2018-09-10T07:04:16.382Z,99.90
2018-09-10T07:06:46.300Z,99.90
2018-09-10T07:09:15.190Z,99.90
2018-09-10T07:11:44.005Z,99.90
2018-09-10T07:14:13.839Z,99.90
2018-09-10T07:16:43.407Z,99.90
2018-09-10T07:19:12.508Z,99.90
2018-09-10T07:21:42.255Z,99.90
2018-09-10T07:24:12.226Z,99.90
2018-09-10T07:26:42.581Z,99.90
2018-09-10T07:29:12.230Z,99.90
2018-09-10T07:31:42.616Z,99.90
2018-09-10T07:34:12.535Z,99.90
2018-09-10T07:36:42.825Z,99.90
2018-09-10T07:39:13.235Z,99.90
2018-09-10T07:41:42.312Z,99.90
2018-09-10T07:44:11.248Z,99.90
2018-09-10T07:46:40.178Z,99.90
2018-09-10T07:49:08.981Z,99.90
2018-09-10T07:51:38.805Z,99.90
2018-09-10T07:54:07.880Z,99.90
2018-09-10T07:56:36.708Z,99.90
2018-09-10T07:59:06.009Z,99.90
2018-09-10T08:01:36.236Z,99.90
2018-09-10T08:04:05.061Z,99.90
2018-09-10T08:06:34.385Z,99.90
2018-09-10T08:09:03.660Z,99.90
2018-09-10T08:11:32.844Z,99.90
2018-09-10T08:14:03.043Z,99.90
2018-09-10T08:16:31.998Z,99.90
2018-09-10T08:19:00.878Z,99.90
2018-09-10T08:21:29.834Z,99.90
2018-09-10T08:23:58.892Z,99.90
2018-09-10T08:26:28.179Z,99.90
2018-09-10T08:28:57.119Z,99.90
2018-09-10T08:31:25.931Z,99.90
2018-09-10T08:33:55.363Z,99.90
2018-09-10T08:36:24.282Z,99.90
2018-09-10T08:38:53.265Z,99.90
2018-09-10T08:41:22.123Z,99.90
2018-09-10T08:43:50.904Z,99.90
2018-09-10T08:46:19.794Z,99.90
2018-09-10T08:48:48.853Z,99.90
2018-09-10T08:51:18.560Z,99.90
2018-09-10T08:53:48.567Z,99.90
2018-09-10T08:56:17.664Z,99.90
2018-09-10T08:58:48.046Z,99.90
2018-09-10T09:01:17.170Z,99.90
2018-09-10T09:03:46.466Z,99.90
2018-09-10T09:06:15.910Z,99.90
2018-09-10T09:08:46.607Z,99.90
2018-09-10T09:11:15.564Z,99.90
2018-09-10T09:13:46.301Z,99.90
2018-09-10T09:16:15.235Z,99.90
2018-09-10T09:18:44.626Z,99.90
2018-09-10T09:21:13.687Z,99.90
2018-09-10T09:23:42.784Z,99.90
2018-09-10T09:26:11.843Z,99.90
2018-09-10T09:28:40.852Z,99.90
2018-09-10T09:31:10.007Z,99.90
2018-09-10T09:33:38.858Z,99.90
2018-09-10T09:36:13.060Z,99.90
2018-09-10T09:38:48.607Z,99.90
2018-09-10T09:41:23.182Z,99.90
2018-09-10T09:43:58.601Z,99.90
2018-09-10T09:46:27.608Z,99.90
2018-09-10T09:48:56.832Z,99.90
2018-09-10T09:51:28.252Z,99.90
2018-09-10T09:53:58.449Z,99.90
2018-09-10T09:56:27.514Z,99.90
2018-09-10T09:58:58.008Z,99.90
2018-09-10T10:01:33.843Z,99.90
2018-09-10T10:04:10.280Z,99.90
2018-09-10T10:06:39.250Z,99.90
2018-09-10T10:09:10.156Z,99.90
2018-09-10T10:11:39.863Z,98.90
2018-09-10T10:14:10.103Z,99.90
2018-09-10T10:16:39.382Z,99.90
2018-09-10T10:19:08.291Z,99.90
2018-09-10T10:21:37.277Z,99.90
2018-09-10T10:24:06.303Z,99.90
2018-09-10T10:26:36.175Z,99.90
2018-09-10T10:29:05.753Z,99.90
2018-09-10T10:31:34.603Z,99.20
2018-09-10T10:34:03.447Z,99.60
2018-09-10T10:36:34.949Z,98.10
2018-09-10T10:39:06.535Z,99.90
2018-09-10T10:41:37.384Z,98.30
2018-09-10T10:44:06.312Z,96.50
2018-09-10T10:46:35.315Z,97.00
2018-09-10T10:49:05.365Z,95.80
2018-09-10T10:51:34.209Z,95.80
2018-09-10T10:54:03.203Z,93.70
2018-09-10T10:56:32.027Z,94.10
2018-09-10T10:59:00.871Z,94.90
2018-09-10T11:01:30.170Z,94.80
2018-09-10T11:04:00.314Z,94.60
2018-09-10T11:06:30.371Z,93.70
2018-09-10T11:09:01.516Z,92.90
2018-09-10T11:11:30.673Z,92.70
2018-09-10T11:13:59.539Z,90.60
2018-09-10T11:16:28.348Z,88.80
2018-09-10T11:18:57.274Z,85.20
2018-09-10T11:21:27.366Z,86.80
2018-09-10T11:23:57.157Z,87.20
2018-09-10T11:26:27.947Z,85.70
2018-09-10T11:28:56.844Z,84.70
2018-09-10T11:31:28.035Z,87.70
2018-09-10T11:33:58.441Z,79.80
2018-09-10T11:36:28.984Z,83.20
2018-09-10T11:38:58.070Z,83.40
2018-09-10T11:41:26.876Z,80.60
2018-09-10T11:43:55.914Z,84.20
2018-09-10T11:46:24.802Z,85.20
2018-09-10T11:48:53.642Z,84.00
2018-09-10T11:51:23.893Z,82.50
2018-09-10T11:53:53.779Z,81.70
2018-09-10T11:56:29.722Z,78.30
2018-09-10T11:58:58.771Z,74.90
2018-09-10T12:01:27.643Z,79.40
2018-09-10T12:03:57.735Z,77.50
2018-09-10T12:06:28.151Z,79.30
2018-09-10T12:08:57.166Z,78.10
2018-09-10T12:11:27.216Z,80.20
2018-09-10T12:13:57.729Z,80.50
2018-09-10T12:16:27.917Z,81.90
2018-09-10T12:18:56.767Z,81.30
2018-09-10T12:21:25.700Z,80.80
2018-09-10T12:23:54.701Z,82.10
2018-09-10T12:26:25.302Z,79.60
2018-09-10T12:28:54.190Z,75.40
2018-09-10T12:31:23.022Z,77.20
2018-09-10T12:33:52.235Z,74.00
2018-09-10T12:36:21.076Z,72.80
2018-09-10T12:38:49.886Z,73.00
2018-09-10T12:41:19.059Z,70.30
2018-09-10T12:43:47.917Z,70.00
2018-09-10T12:46:16.799Z,67.90
2018-09-10T12:48:45.658Z,68.30
2018-09-10T12:51:14.505Z,70.10
2018-09-10T12:53:43.462Z,71.00
2018-09-10T12:56:13.029Z,70.70
2018-09-10T12:58:41.961Z,72.20
2018-09-10T13:01:11.491Z,69.70
2018-09-10T13:03:40.417Z,72.30
2018-09-10T13:06:09.514Z,71.70
2018-09-10T13:08:38.340Z,71.00
2018-09-10T13:11:19.313Z,68.40
2018-09-10T13:13:48.163Z,65.30
2018-09-10T13:16:17.275Z,66.10
2018-09-10T13:18:46.403Z,68.60
2018-09-10T13:21:15.263Z,66.70
2018-09-10T13:23:45.278Z,69.60
2018-09-10T13:26:14.192Z,70.30
2018-09-10T13:28:47.466Z,66.20
2018-09-10T13:31:17.363Z,66.30
2018-09-10T13:33:47.500Z,65.40
2018-09-10T13:36:17.266Z,68.30
2018-09-10T13:38:46.327Z,68.20
2018-09-10T13:41:15.190Z,68.10
2018-09-10T13:43:44.364Z,67.50
2018-09-10T13:46:13.560Z,65.70
2018-09-10T13:48:42.423Z,66.70
2018-09-10T13:51:11.218Z,66.80
2018-09-10T13:53:40.197Z,67.60
2018-09-10T13:56:09.041Z,65.30
2018-09-10T13:58:37.981Z,65.50
2018-09-10T14:01:06.876Z,65.90
2018-09-10T14:03:35.854Z,67.20
2018-09-10T14:06:04.933Z,65.50
2018-09-10T14:08:33.995Z,65.50
2018-09-10T14:11:03.189Z,66.30
2018-09-10T14:13:32.270Z,67.40
2018-09-10T14:16:01.387Z,65.20
2018-09-10T14:18:30.535Z,60.60
2018-09-10T14:20:59.698Z,60.90
2018-09-10T14:23:28.812Z,60.60
2018-09-10T14:25:58.121Z,62.20
2018-09-10T14:28:27.484Z,60.20
2018-09-10T14:30:56.557Z,60.00
2018-09-10T14:33:25.504Z,60.50
2018-09-10T14:35:55.768Z,60.50
2018-09-10T14:38:24.842Z,59.70
2018-09-10T14:40:53.811Z,62.10
2018-09-10T14:43:22.780Z,62.10
2018-09-10T14:45:52.492Z,61.20
2018-09-10T14:48:21.719Z,61.00
2018-09-10T14:50:50.798Z,61.50
2018-09-10T14:53:20.072Z,62.60
2018-09-10T14:55:49.085Z,64.50
2018-09-10T14:58:18.173Z,61.60
2018-09-10T15:00:47.215Z,62.30
2018-09-10T15:03:16.105Z,62.00
2018-09-10T15:05:44.969Z,62.70
2018-09-10T15:08:13.841Z,66.00
2018-09-10T15:10:42.828Z,66.00
2018-09-10T15:13:11.772Z,66.10
2018-09-10T15:15:40.813Z,68.00
2018-09-10T15:18:09.678Z,68.90
2018-09-10T15:20:38.583Z,67.50
2018-09-10T15:23:07.642Z,68.40
2018-09-10T15:25:36.385Z,67.10
2018-09-10T15:28:05.472Z,66.20
2018-09-10T15:30:34.599Z,66.70
2018-09-10T15:33:03.417Z,65.40
2018-09-10T15:35:32.251Z,66.60
2018-09-10T15:38:01.112Z,68.20
2018-09-10T15:40:30.447Z,68.90
2018-09-10T15:42:59.192Z,71.20
2018-09-10T15:45:28.009Z,73.00
2018-09-10T15:47:56.984Z,73.20
2018-09-10T15:50:25.795Z,74.40
2018-09-10T15:52:54.983Z,74.70
2018-09-10T15:55:23.819Z,77.70
2018-09-10T15:57:52.648Z,76.00
2018-09-10T16:00:21.514Z,78.40
2018-09-10T16:02:50.433Z,80.60
2018-09-10T16:05:19.505Z,82.90
2018-09-10T16:07:48.867Z,81.50
2018-09-10T16:10:18.535Z,82.00
2018-09-10T16:12:47.344Z,83.00
2018-09-10T16:15:16.176Z,83.50
2018-09-10T16:17:45.150Z,85.60
2018-09-10T16:20:13.958Z,86.60
2018-09-10T16:22:42.746Z,87.90
2018-09-10T16:25:11.604Z,89.20
2018-09-10T16:27:41.515Z,91.10
2018-09-10T16:30:10.516Z,91.00
2018-09-10T16:32:39.321Z,91.30
2018-09-10T16:35:08.059Z,91.70
2018-09-10T16:37:37.114Z,92.80
2018-09-10T16:40:06.400Z,93.20
2018-09-10T16:42:35.398Z,93.00
2018-09-10T16:45:04.184Z,93.60
2018-09-10T16:47:32.976Z,93.90
2018-09-10T16:50:01.877Z,94.20
2018-09-10T16:52:30.703Z,94.40
2018-09-10T16:54:59.976Z,94.60
2018-09-10T16:57:28.898Z,94.30
2018-09-10T16:59:57.707Z,95.10
2018-09-10T17:02:26.553Z,96.30
2018-09-10T17:04:55.311Z,97.20
2018-09-10T17:07:24.303Z,98.00
2018-09-10T17:09:53.093Z,99.60
2018-09-10T17:12:22.039Z,99.90
2018-09-10T17:14:50.942Z,99.90
2018-09-10T17:17:19.709Z,99.90
2018-09-10T17:19:53.507Z,99.90
2018-09-10T17:22:22.409Z,99.90
2018-09-10T17:24:51.272Z,99.90
2018-09-10T17:27:20.069Z,99.90
2018-09-10T17:29:48.907Z,99.90
2018-09-10T17:32:18.948Z,99.90
2018-09-10T17:34:47.714Z,99.90
2018-09-10T17:37:16.626Z,99.90
2018-09-10T17:39:45.540Z,99.90
2018-09-10T17:42:14.330Z,99.90
2018-09-10T17:44:43.239Z,99.90
2018-09-10T17:47:12.226Z,99.90
2018-09-10T17:49:41.803Z,99.90
2018-09-10T17:52:10.757Z,99.90
2018-09-10T17:54:39.788Z,99.90
2018-09-10T17:57:08.675Z,99.90
2018-09-10T17:59:37.421Z,99.90
2018-09-10T18:02:06.241Z,99.90
2018-09-10T18:04:35.119Z,99.90
2018-09-10T18:07:03.968Z,99.90
2018-09-10T18:09:34.231Z,99.90
2018-09-10T18:12:04.024Z,99.90
2018-09-10T18:14:34.182Z,99.90
2018-09-10T18:17:03.067Z,99.90
2018-09-10T18:19:31.809Z,99.90
2018-09-10T18:22:00.659Z,99.90
2018-09-10T18:24:31.776Z,99.90
2018-09-10T18:27:01.099Z,99.90
2018-09-10T18:29:29.866Z,99.90
2018-09-10T18:31:58.597Z,99.90
2018-09-10T18:34:27.561Z,99.90
2018-09-10T18:36:56.377Z,99.90
2018-09-10T18:39:25.342Z,99.90
2018-09-10T18:41:54.101Z,99.90
2018-09-10T18:44:22.875Z,99.90
2018-09-10T18:46:51.776Z,99.90
2018-09-10T18:49:20.609Z,99.90
2018-09-10T18:51:49.543Z,99.90
2018-09-10T18:54:18.488Z,99.90
2018-09-10T18:56:47.332Z,99.90
2018-09-10T18:59:16.497Z,99.90
2018-09-10T19:01:45.358Z,99.90
2018-09-10T19:04:14.171Z,99.90
2018-09-10T19:06:43.038Z,99.90
2018-09-10T19:09:12.308Z,99.90
2018-09-10T19:11:41.411Z,99.90
2018-09-10T19:14:10.653Z,99.90
2018-09-10T19:16:39.462Z,99.90
2018-09-10T19:19:08.420Z,99.90
2018-09-10T19:21:37.271Z,99.90
2018-09-10T19:24:07.122Z,99.90
2018-09-10T19:26:36.182Z,99.90
2018-09-10T19:29:04.979Z,99.90
2018-09-10T19:31:34.195Z,99.90
2018-09-10T19:34:03.083Z,99.90
2018-09-10T19:36:32.009Z,99.90
2018-09-10T19:39:00.875Z,99.90
2018-09-10T19:41:29.695Z,99.90
2018-09-10T19:43:58.498Z,99.90
2018-09-10T19:46:28.014Z,99.90
2018-09-10T19:48:57.056Z,99.90
2018-09-10T19:51:26.806Z,99.90
2018-09-10T19:53:56.041Z,99.90
2018-09-10T19:56:28.042Z,99.90
2018-09-10T19:58:57.343Z,99.90
2018-09-10T20:01:26.715Z,99.90
2018-09-10T20:03:55.663Z,99.90
2018-09-10T20:06:25.144Z,99.90
2018-09-10T20:08:54.045Z,99.90
2018-09-10T20:11:23.145Z,99.90
2018-09-10T20:13:52.332Z,99.90
2018-09-10T20:16:22.175Z,99.90
2018-09-10T20:18:51.055Z,99.90
2018-09-10T20:21:20.019Z,99.90
2018-09-10T20:23:49.397Z,99.90
2018-09-10T20:26:18.686Z,99.90
2018-09-10T20:28:48.451Z,99.90
2018-09-10T20:31:17.387Z,99.90
2018-09-10T20:33:51.629Z,99.90
2018-09-10T20:36:20.857Z,99.90
2018-09-10T20:38:50.487Z,99.90
2018-09-10T20:41:19.471Z,99.90
2018-09-10T20:43:48.501Z,99.90
2018-09-10T20:46:17.882Z,99.90
2018-09-10T20:48:46.829Z,99.90
2018-09-10T20:51:15.959Z,99.90
2018-09-10T20:53:45.030Z,99.90
2018-09-10T20:56:14.038Z,99.90
2018-09-10T20:58:43.082Z,99.90
2018-09-10T21:01:12.373Z,99.90
2018-09-10T21:03:41.479Z,99.90
2018-09-10T21:06:10.400Z,99.90
2018-09-10T21:08:39.235Z,99.90
2018-09-10T21:11:08.419Z,99.90
2018-09-10T21:13:37.255Z,99.90
2018-09-10T21:16:06.213Z,99.90
2018-09-10T21:18:35.348Z,99.90
2018-09-10T21:21:04.136Z,99.90
2018-09-10T21:23:32.992Z,99.90
2018-09-10T21:26:01.819Z,99.90
2018-09-10T21:28:31.141Z,99.90
2018-09-10T21:31:00.124Z,99.90
2018-09-10T21:33:29.048Z,99.90
2018-09-10T21:35:58.284Z,99.90
2018-09-10T21:38:27.099Z,99.90
2018-09-10T21:40:55.928Z,99.90
2018-09-10T21:43:24.711Z,99.90
2018-09-10T21:45:53.851Z,99.90
2018-09-10T21:48:22.658Z,99.90
2018-09-10T21:50:51.414Z,99.90
2018-09-10T21:53:20.233Z,99.90
2018-09-10T21:55:49.018Z,99.90
2018-09-10T21:58:17.887Z,99.90
2018-09-10T22:00:52.131Z,99.90
2018-09-10T22:03:21.377Z,99.90
2018-09-10T22:05:50.475Z,99.90
2018-09-10T22:08:19.407Z,99.90
2018-09-10T22:10:48.277Z,99.90
2018-09-10T22:13:17.157Z,99.90
2018-09-10T22:15:46.146Z,99.90
2018-09-10T22:18:14.978Z,99.90
2018-09-10T22:20:44.215Z,99.90
2018-09-10T22:23:13.103Z,99.90
2018-09-10T22:25:42.028Z,99.90
2018-09-10T22:28:11.057Z,99.90
2018-09-10T22:30:39.958Z,99.90
2018-09-10T22:33:08.845Z,99.90
2018-09-10T22:35:37.887Z,99.90
2018-09-10T22:38:06.763Z,99.90
2018-09-10T22:40:35.620Z,99.90
2018-09-10T22:43:04.456Z,99.90
2018-09-10T22:45:33.256Z,99.90
2018-09-10T22:48:02.025Z,99.90
2018-09-10T22:50:30.862Z,99.90
2018-09-10T22:52:59.775Z,99.90
2018-09-10T22:55:28.565Z,99.90
2018-09-10T22:57:57.347Z,99.90
2018-09-10T23:00:26.153Z,99.90
2018-09-10T23:02:54.938Z,99.90
2018-09-10T23:05:24.004Z,99.90
2018-09-10T23:07:52.804Z,99.90
2018-09-10T23:10:21.587Z,99.90
2018-09-10T23:12:50.575Z,99.90
2018-09-10T23:15:19.374Z,99.90
2018-09-10T23:17:48.284Z,99.90
2018-09-10T23:20:17.063Z,99.90
2018-09-10T23:22:45.860Z,99.90
2018-09-10T23:25:14.686Z,99.90
2018-09-10T23:27:43.471Z,99.90
2018-09-10T23:30:12.387Z,99.90
2018-09-10T23:32:41.382Z,99.90
2018-09-10T23:35:10.194Z,99.90
2018-09-10T23:37:39.418Z,99.90
2018-09-10T23:40:08.266Z,99.90
2018-09-10T23:42:37.189Z,99.90
2018-09-10T23:45:06.187Z,99.90
2018-09-10T23:47:34.985Z,99.90
2018-09-10T23:50:03.866Z,99.90
2018-09-10T23:52:32.585Z,99.90
2018-09-10T23:55:01.513Z,99.90
2018-09-10T23:57:30.347Z,99.90
2018-09-10T23:59:59.151Z,99.90
